Time;durP1;ratioP1;P1;durP2;ratioP2;P2;SDS_P1;SDS_P2;PMS_P1;PMS_P2;Temp;Humidity;BMP_temperature;BMP_pressure;BME280_temperature;BME280_humidity;BME280_pressure;Samples;Min_cycle;Max_cycle;Signal;HPM_P1;HPM_P2
2021/12/28 00:00:27;;;;;;;54.20;23.50;;;1.20;99.40;;;-0.94;72.57;99620.47;10407199;28;96618;-77
2021/12/28 00:05:30;;;;;;;39.43;17.03;;;1.20;99.40;;;-0.90;72.57;99618.47;10390070;28;96826;-77
2021/12/28 00:10:34;;;;;;;43.63;19.17;;;1.20;99.70;;;-0.85;72.78;99617.19;10372533;28;97019;-77
2021/12/28 00:15:50;;;;;;;28.30;14.00;;;1.30;99.50;;;-0.82;72.61;99624.81;10391649;28;97668;-77
2021/12/28 00:20:58;;;;;;;34.00;15.13;;;1.30;99.40;;;-0.82;71.23;99614.38;10396473;28;97627;-77
2021/12/28 00:26:03;;;;;;;31.20;14.50;;;1.40;98.40;;;-0.81;71.03;99618.66;10378321;28;98719;-77
2021/12/28 00:31:07;;;;;;;25.93;13.40;;;1.40;98.70;;;-0.81;70.62;99610.81;10387308;28;96547;-77
2021/12/28 00:36:11;;;;;;;28.37;14.30;;;1.30;98.20;;;-0.82;70.63;99610.94;10386009;28;96832;-77
2021/12/28 00:41:15;;;;;;;31.90;14.93;;;1.30;98.30;;;-0.84;70.58;99611.06;10390604;28;97130;-77
2021/12/28 00:46:18;;;;;;;25.30;13.50;;;1.30;98.30;;;-0.84;71.15;99611.06;10386033;28;98218;-77
2021/12/28 00:51:21;;;;;;;27.43;14.63;;;1.30;98.70;;;-0.83;71.28;99615.31;10383706;28;96529;-77
2021/12/28 00:56:24;;;;;;;34.70;15.70;;;1.30;98.80;;;-0.83;70.86;99617.09;10389785;28;96555;-78
2021/12/28 01:01:28;;;;;;;29.87;15.83;;;1.30;98.70;;;-0.83;71.65;99612.72;10393139;28;96774;-77
2021/12/28 01:06:31;;;;;;;30.43;15.43;;;1.30;99.00;;;-0.79;72.17;99617.69;10387746;28;97297;-77
2021/12/28 01:11:34;;;;;;;42.63;18.80;;;1.40;99.20;;;-0.77;72.40;99621.88;10391216;28;98044;-77
2021/12/28 01:16:39;;;;;;;44.30;18.60;;;1.40;99.30;;;-0.77;72.60;99611.44;10375810;28;98593;-77
2021/12/28 01:21:41;;;;;;;35.07;16.73;;;1.40;99.50;;;-0.73;72.79;99609.44;10387795;28;97631;-78
2021/12/28 01:26:46;;;;;;;32.97;17.03;;;1.40;99.80;;;-0.74;72.81;99608.59;10393398;27;96594;-78
2021/12/28 01:31:50;;;;;;;32.40;16.73;;;1.40;99.80;;;-0.74;72.71;99611.22;10381992;28;96790;-77
2021/12/28 01:36:53;;;;;;;36.67;17.57;;;1.40;99.50;;;-0.76;71.91;99614.88;10385568;28;96990;-78
2021/12/28 01:41:56;;;;;;;34.17;15.47;;;1.40;99.20;;;-0.77;71.93;99601.00;10380415;28;97451;-78
2021/12/28 01:47:00;;;;;;;32.33;15.60;;;1.40;99.10;;;-0.82;71.30;99603.13;10394691;28;97724;-77
2021/12/28 01:52:04;;;;;;;40.57;17.20;;;1.30;98.50;;;-0.84;71.27;99603.22;10363377;28;97788;-77
2021/12/28 01:57:07;;;;;;;36.23;18.50;;;1.30;99.10;;;-0.82;71.64;99592.69;10366118;28;98489;-77
2021/12/28 02:02:10;;;;;;;37.40;16.60;;;1.30;99.20;;;-0.81;71.34;99591.72;10357376;28;97645;-77
2021/12/28 02:07:13;;;;;;;37.83;17.47;;;1.40;99.20;;;-0.80;71.39;99593.38;10388491;28;96614;-77
2021/12/28 02:12:16;;;;;;;29.57;14.40;;;1.30;98.80;;;-0.78;71.83;99593.28;10377567;28;96736;-77
2021/12/28 02:17:19;;;;;;;27.60;13.27;;;1.30;99.40;;;-0.76;73.05;99592.25;10385683;28;96791;-77
2021/12/28 02:22:22;;;;;;;26.53;13.17;;;1.40;99.90;;;-0.70;74.35;99590.97;10382058;28;96665;-77
2021/12/28 02:27:28;;;;;;;28.97;13.53;;;1.40;99.90;;;-0.67;75.70;99590.72;10385727;28;98554;-77
2021/12/28 02:32:31;;;;;;;28.40;13.20;;;1.50;99.90;;;-0.63;76.75;99592.19;10382404;28;97022;-77
2021/12/28 02:37:34;;;;;;;27.93;12.40;;;1.50;99.90;;;-0.60;77.63;99586.72;10396503;27;97104;-77
2021/12/28 02:42:37;;;;;;;25.10;12.30;;;1.50;99.90;;;-0.58;78.00;99577.84;10387574;28;96966;-77
2021/12/28 02:47:44;;;;;;;25.67;12.27;;;1.60;99.90;;;-0.57;78.59;99578.69;10369701;28;98975;-77
2021/12/28 02:52:48;;;;;;;29.70;14.57;;;1.60;99.90;;;-0.57;78.74;99565.63;10385445;28;98031;-77
2021/12/28 02:57:55;;;;;;;28.70;14.63;;;1.60;99.90;;;-0.58;78.11;99564.81;10387917;27;97586;-77
2021/12/28 03:02:59;;;;;;;26.03;13.50;;;1.60;99.90;;;-0.59;77.42;99562.31;10386263;28;97613;-78
2021/12/28 03:08:03;;;;;;;29.83;14.20;;;1.60;99.90;;;-0.58;77.37;99564.81;10361152;28;97499;-77
2021/12/28 03:13:07;;;;;;;28.77;13.43;;;1.60;99.90;;;-0.59;77.33;99557.09;10368190;28;98477;-78
2021/12/28 03:18:10;;;;;;;29.63;13.90;;;1.60;99.90;;;-0.61;77.16;99569.41;10375121;27;98776;-77
2021/12/28 03:23:17;;;;;;;26.43;13.07;;;1.50;99.90;;;-0.61;77.67;99564.19;10361673;28;97114;-77
2021/12/28 03:28:24;;;;;;;30.17;14.03;;;1.50;99.90;;;-0.65;77.56;99563.59;10364747;27;96990;-78
2021/12/28 03:33:30;;;;;;;27.77;13.70;;;1.50;99.90;;;-0.66;77.74;99555.84;10379418;28;97482;-77
2021/12/28 03:38:35;;;;;;;25.60;12.57;;;1.50;99.90;;;-0.68;78.60;99568.19;10362585;28;97112;-77
2021/12/28 03:43:43;;;;;;;30.13;13.33;;;1.50;99.90;;;-0.71;78.88;99568.44;10374295;27;98573;-78
2021/12/28 03:48:46;;;;;;;29.43;14.40;;;1.50;99.90;;;-0.73;79.95;99570.31;10365723;28;97623;-78
2021/12/28 03:53:50;;;;;;;27.93;12.90;;;1.40;99.90;;;-0.74;80.51;99568.63;10378714;28;98543;-77
2021/12/28 03:58:53;;;;;;;32.67;14.67;;;1.40;99.90;;;-0.79;80.51;99571.56;10387982;28;97289;-78
2021/12/28 04:03:56;;;;;;;33.27;14.43;;;1.40;99.90;;;-0.82;81.26;99577.03;10379696;28;97191;-78
2021/12/28 04:09:02;;;;;;;34.13;15.57;;;1.30;99.90;;;-0.85;81.72;99572.00;10351342;28;97168;-78
2021/12/28 04:14:07;;;;;;;39.40;15.27;;;1.30;99.90;;;-0.87;81.94;99569.53;10373460;28;97711;-77
2021/12/28 04:19:10;;;;;;;37.57;16.37;;;1.30;99.90;;;-0.89;82.19;99566.22;10360179;28;96943;-77
2021/12/28 04:24:13;;;;;;;37.60;15.97;;;1.20;99.90;;;-0.91;82.71;99572.47;10379146;27;98576;-77
2021/12/28 04:29:16;;;;;;;39.33;16.10;;;1.20;99.90;;;-0.94;83.13;99573.53;10386553;27;97717;-77
2021/12/28 04:34:20;;;;;;;37.63;14.97;;;1.20;99.90;;;-0.94;83.09;99578.75;10375304;28;98246;-77
2021/12/28 04:39:22;;;;;;;36.53;15.47;;;1.20;99.90;;;-0.95;83.80;99584.91;10372400;28;96676;-77
2021/12/28 04:44:25;;;;;;;31.87;15.07;;;1.20;99.90;;;-0.93;83.68;99582.19;10397686;28;96901;-77
2021/12/28 04:49:29;;;;;;;34.77;15.27;;;1.20;99.90;;;-0.96;84.22;99578.03;10386272;28;98142;-77
2021/12/28 04:54:32;;;;;;;43.33;15.80;;;1.20;99.90;;;-0.98;84.76;99572.06;10367162;28;97906;-77
2021/12/28 04:59:35;;;;;;;38.87;14.83;;;1.20;99.90;;;-0.97;85.07;99565.06;10368162;28;97525;-77
2021/12/28 05:04:38;;;;;;;33.23;14.60;;;1.10;99.90;;;-0.98;85.38;99563.41;10371805;28;96739;-77
2021/12/28 05:09:41;;;;;;;39.00;16.67;;;1.20;99.90;;;-0.98;85.44;99568.63;10371426;28;96774;-77
2021/12/28 05:14:44;;;;;;;37.80;16.77;;;1.20;99.90;;;-0.97;85.88;99581.56;10359474;28;97089;-77
2021/12/28 05:19:47;;;;;;;35.80;15.43;;;1.20;99.90;;;-0.98;85.81;99576.47;10363209;28;97267;-77
2021/12/28 05:24:50;;;;;;;36.90;15.10;;;1.20;99.90;;;-0.96;86.19;99580.63;10384107;28;97058;-77
2021/12/28 05:29:53;;;;;;;36.10;14.97;;;1.20;99.90;;;-0.97;86.13;99576.34;10373430;28;98683;-77
2021/12/28 05:34:55;;;;;;;47.23;20.17;;;1.20;99.90;;;-0.98;86.75;99582.50;10406769;28;97027;-77
2021/12/28 05:39:59;;;;;;;50.70;18.53;;;1.20;99.90;;;-0.99;86.92;99580.00;10382507;28;97426;-78
2021/12/28 05:45:04;;;;;;;37.50;15.00;;;1.20;99.90;;;-1.01;87.66;99582.75;10376814;28;97195;-77
2021/12/28 05:50:09;;;;;;;47.73;15.57;;;1.10;99.90;;;-1.06;87.76;99584.84;10365355;28;97014;-78
2021/12/28 05:55:12;;;;;;;39.87;14.80;;;1.10;99.90;;;-1.08;88.33;99589.31;10368030;28;96656;-78
2021/12/28 06:00:16;;;;;;;38.93;16.07;;;1.10;99.90;;;-1.05;88.85;99596.09;10377156;27;96962;-77
2021/12/28 06:05:19;;;;;;;46.83;17.87;;;1.10;99.90;;;-1.04;89.25;99609.03;10379806;28;98045;-77
2021/12/28 06:10:22;;;;;;;36.40;14.93;;;1.10;99.90;;;-1.03;89.40;99600.25;10355383;28;98208;-77
2021/12/28 06:15:25;;;;;;;32.17;13.23;;;1.10;99.90;;;-1.03;89.60;99609.84;10352976;28;98334;-77
2021/12/28 06:20:28;;;;;;;30.87;13.03;;;1.10;99.90;;;-1.03;89.90;99615.91;10360475;27;96915;-77
2021/12/28 06:25:32;;;;;;;33.13;13.10;;;1.10;99.90;;;-1.04;90.16;99616.84;10370893;28;98441;-77
2021/12/28 06:30:35;;;;;;;33.70;12.57;;;1.10;99.90;;;-1.03;90.29;99615.06;10370837;28;98457;-77
2021/12/28 06:35:39;;;;;;;35.77;13.17;;;1.10;99.90;;;-1.01;90.19;99623.63;10376970;27;98675;-77
2021/12/28 06:40:42;;;;;;;35.57;13.87;;;1.10;99.90;;;-1.04;90.46;99622.06;10369417;28;97150;-77
2021/12/28 06:45:45;;;;;;;31.53;14.20;;;1.10;99.90;;;-1.02;90.80;99622.81;10365591;27;98441;-78
2021/12/28 06:50:49;;;;;;;33.57;14.17;;;1.10;99.90;;;-1.01;90.70;99631.47;10374717;27;97029;-78
2021/12/28 06:55:52;;;;;;;33.00;12.37;;;1.10;99.90;;;-1.04;90.67;99624.66;10354187;28;97444;-78
2021/12/28 07:00:55;;;;;;;32.07;12.77;;;1.10;99.90;;;-1.04;91.13;99614.22;10370036;28;98208;-78
2021/12/28 07:05:59;;;;;;;27.90;11.47;;;1.10;99.90;;;-1.06;91.21;99631.78;10371546;28;96661;-80
2021/12/28 07:11:03;;;;;;;29.13;11.17;;;1.00;99.90;;;-1.06;91.46;99628.34;10372166;28;97588;-79
2021/12/28 07:16:06;;;;;;;23.67;10.30;;;1.10;99.90;;;-1.08;91.97;99639.72;10387277;27;97239;-78
2021/12/28 07:21:09;;;;;;;30.70;12.03;;;1.00;99.90;;;-1.07;92.12;99643.16;10385673;27;97042;-78
2021/12/28 07:26:12;;;;;;;23.87;10.37;;;1.00;99.90;;;-1.06;92.18;99647.41;10380750;28;97062;-78
2021/12/28 07:31:14;;;;;;;35.03;11.53;;;1.00;99.90;;;-1.09;92.31;99652.84;10390441;28;97106;-78
2021/12/28 07:36:18;;;;;;;34.93;13.23;;;1.00;99.90;;;-1.09;92.58;99660.66;10373029;28;98346;-78
2021/12/28 07:41:23;;;;;;;43.00;16.70;;;1.00;99.90;;;-1.08;93.03;99664.94;10377955;27;98642;-78
2021/12/28 07:46:26;;;;;;;31.57;13.77;;;1.00;99.90;;;-1.05;93.34;99666.50;10378226;28;98015;-79
2021/12/28 07:51:29;;;;;;;33.40;12.77;;;1.00;99.90;;;-1.03;93.35;99662.00;10361089;28;96663;-79
2021/12/28 07:56:32;;;;;;;30.90;13.23;;;1.10;99.90;;;-1.01;93.78;99654.94;10369956;28;97177;-79
2021/12/28 08:01:36;;;;;;;51.47;20.70;;;1.10;99.90;;;-0.99;93.54;99661.69;10371416;28;97519;-79
2021/12/28 08:06:39;;;;;;;59.60;24.50;;;1.10;99.90;;;-0.99;93.96;99661.69;10369491;28;96961;-79
2021/12/28 08:11:42;;;;;;;38.80;13.53;;;1.10;99.90;;;-0.99;93.95;99661.69;10413112;28;97837;-79
2021/12/28 08:16:46;;;;;;;30.83;13.40;;;1.10;99.90;;;-0.99;94.31;99663.47;10380589;27;96582;-81
2021/12/28 08:21:50;;;;;;;37.33;13.47;;;1.10;99.90;;;-0.96;94.66;99648.44;10370727;27;98720;-80
2021/12/28 08:26:53;;;;;;;38.57;14.73;;;1.10;99.90;;;-0.94;94.59;99662.22;10368952;27;98414;-82
2021/12/28 08:31:56;;;;;;;40.43;14.43;;;1.10;99.90;;;-0.93;94.95;99653.44;10361446;28;97832;-81
2021/12/28 08:36:59;;;;;;;38.50;14.90;;;1.10;99.90;;;-0.91;94.92;99661.16;10354460;28;97198;-87
2021/12/28 08:42:02;;;;;;;38.13;13.03;;;1.20;99.90;;;-0.90;94.92;99662.81;10356068;28;97009;-79
2021/12/28 08:47:06;;;;;;;30.53;12.23;;;1.20;99.90;;;-0.89;95.07;99654.91;10362022;27;98333;-81
2021/12/28 08:52:09;;;;;;;39.80;15.23;;;1.20;99.90;;;-0.87;94.95;99667.81;10385821;28;96986;-78
2021/12/28 08:57:12;;;;;;;42.40;16.70;;;1.20;99.90;;;-0.85;95.30;99666.75;10360884;27;97955;-82
2021/12/28 09:02:15;;;;;;;47.97;17.50;;;1.30;99.90;;;-0.84;95.28;99673.66;10369264;28;98200;-80
2021/12/28 09:07:19;;;;;;;43.83;16.40;;;1.30;99.90;;;-0.85;95.56;99671.16;10359015;28;98393;-79
2021/12/28 09:12:27;;;;;;;44.00;18.57;;;1.30;99.90;;;-0.81;95.80;99657.78;10367922;28;96727;-79
2021/12/28 09:17:30;;;;;;;45.00;18.73;;;1.30;99.90;;;-0.73;95.82;99664.22;10367831;28;97049;-79
2021/12/28 09:22:33;;;;;;;42.97;19.77;;;1.30;99.90;;;-0.70;95.84;99658.81;10387551;28;97112;-78
2021/12/28 09:27:41;;;;;;;48.77;19.30;;;1.40;99.90;;;-0.66;96.20;99647.19;10377751;28;98267;-78
2021/12/28 09:32:44;;;;;;;41.60;18.40;;;1.40;99.90;;;-0.61;96.21;99647.69;10389556;28;96716;-78
2021/12/28 09:37:47;;;;;;;49.57;19.90;;;1.50;99.90;;;-0.58;96.38;99643.09;10388173;28;98108;-78
2021/12/28 09:42:51;;;;;;;41.67;18.67;;;1.50;99.90;;;-0.51;96.42;99634.81;10366784;28;97104;-78
2021/12/28 09:47:54;;;;;;;40.27;16.23;;;1.50;99.90;;;-0.46;96.81;99630.94;10370291;28;98323;-78
2021/12/28 09:52:59;;;;;;;39.60;18.70;;;1.60;99.90;;;-0.39;96.39;99639.97;10361067;28;96896;-77
2021/12/28 09:58:03;;;;;;;41.93;17.77;;;1.70;99.90;;;-0.34;96.86;99648.31;10360853;28;96727;-77
2021/12/28 10:03:15;;;;;;;43.13;19.27;;;1.70;99.90;;;-0.27;96.67;99662.59;10364777;28;96841;-78
2021/12/28 10:08:24;;;;;;;39.73;16.93;;;1.80;99.90;;;-0.26;96.82;99647.75;10372830;28;99203;-77
2021/12/28 10:13:29;;;;;;;44.20;18.70;;;1.80;99.90;;;-0.24;96.56;99640.66;10357729;28;97494;-77
2021/12/28 10:18:32;;;;;;;41.93;20.20;;;1.80;99.90;;;-0.23;96.41;99637.09;10372613;28;97970;-78
2021/12/28 10:23:35;;;;;;;50.53;21.27;;;1.80;99.90;;;-0.21;96.48;99623.91;10378128;28;97012;-78
2021/12/28 10:28:39;;;;;;;46.50;20.87;;;1.80;99.90;;;-0.20;96.18;99617.75;10359339;28;98216;-79
2021/12/28 10:33:42;;;;;;;46.60;21.20;;;1.80;99.90;;;-0.19;96.17;99619.41;10362656;28;96527;-78
2021/12/28 10:38:50;;;;;;;45.73;20.40;;;1.90;99.90;;;-0.20;96.21;99610.75;10358366;28;98407;-78
2021/12/28 10:43:55;;;;;;;43.83;19.50;;;1.90;99.90;;;-0.19;96.24;99616.78;10380716;28;98613;-79
2021/12/28 10:49:01;;;;;;;43.37;19.63;;;1.90;99.90;;;-0.19;96.18;99601.13;10338264;28;98905;-79
2021/12/28 10:59:14;;;;;;;51.20;22.20;;;1.90;99.90;;;-0.19;95.76;99594.13;10340041;28;98909;-79
2021/12/28 11:04:18;;;;;;;41.97;19.10;;;1.90;99.90;;;-0.17;95.70;99594.03;10347868;28;97593;-79
2021/12/28 11:09:25;;;;;;;40.57;18.83;;;1.90;99.90;;;-0.18;95.55;99595.81;10336932;28;96826;-79
2021/12/28 11:14:30;;;;;;;45.23;19.27;;;1.90;99.90;;;-0.20;95.52;99584.63;10338480;28;97241;-78
2021/12/28 11:19:36;;;;;;;42.17;20.40;;;1.90;99.90;;;-0.22;95.17;99594.34;10341705;28;96940;-79
2021/12/28 11:24:46;;;;;;;47.97;20.33;;;1.80;99.90;;;-0.22;95.18;99583.09;10351948;28;96902;-79
2021/12/28 11:29:48;;;;;;;51.90;22.20;;;1.80;99.90;;;-0.21;95.33;99574.31;10373906;28;99017;-79
2021/12/28 11:34:52;;;;;;;52.13;22.40;;;1.80;99.90;;;-0.20;95.12;99571.56;10364807;28;97690;-79
2021/12/28 11:40:03;;;;;;;41.63;18.57;;;1.80;99.90;;;-0.20;95.32;99581.19;10360583;27;97215;-79
2021/12/28 11:45:08;;;;;;;35.40;17.47;;;1.80;99.90;;;-0.23;95.48;99561.38;10386046;27;97224;-78
2021/12/28 11:50:11;;;;;;;38.93;19.57;;;1.80;99.90;;;-0.22;95.20;99543.91;10398199;27;98537;-78
2021/12/28 11:55:14;;;;;;;52.10;21.67;;;1.80;99.90;;;-0.19;95.54;99543.66;10372995;28;96737;-79
2021/12/28 12:00:20;;;;;;;52.77;23.87;;;1.80;99.90;;;-0.18;95.64;99527.91;10366327;27;96934;-78
2021/12/28 12:05:25;;;;;;;42.83;18.77;;;1.80;99.90;;;-0.17;95.68;99507.84;10376866;28;97774;-78
2021/12/28 12:10:30;;;;;;;44.83;18.93;;;1.90;99.90;;;-0.21;95.48;99504.63;10372539;28;98819;-78
2021/12/28 12:15:44;;;;;;;42.57;19.27;;;1.80;99.90;;;-0.22;95.78;99504.75;10346960;28;98161;-78
2021/12/28 12:20:55;;;;;;;42.70;19.67;;;1.80;99.90;;;-0.24;95.48;99497.03;10368734;27;96989;-78
2021/12/28 12:26:08;;;;;;;43.03;19.93;;;1.80;99.90;;;-0.20;95.70;99484.56;10383252;28;98129;-78
2021/12/28 12:31:34;;;;;;;46.00;21.37;;;1.80;99.90;;;-0.21;95.74;99475.06;10381865;28;96680;-78
2021/12/28 12:36:41;;;;;;;50.77;23.67;;;1.80;99.90;;;-0.25;96.08;99461.41;10377752;27;98124;-78
2021/12/28 12:41:53;;;;;;;55.93;23.93;;;1.80;99.90;;;-0.26;96.13;99459.75;10384161;28;97133;-79
2021/12/28 12:47:06;;;;;;;55.65;24.83;;;1.80;99.90;;;-0.30;96.27;99456.56;10414958;28;96610;-79
2021/12/28 12:52:16;;;;;;;53.17;21.10;;;1.80;99.90;;;-0.30;96.28;99448.72;10350043;28;96625;-79
2021/12/28 12:57:28;;;;;;;44.92;19.85;;;1.70;99.90;;;-0.30;96.15;99456.56;10400063;28;96597;-79
2021/12/28 13:02:36;;;;;;;50.83;22.30;;;1.80;99.90;;;-0.34;96.66;99447.28;10355913;28;98329;-78
2021/12/28 13:07:39;;;;;;;46.97;18.50;;;1.70;99.90;;;-0.35;96.51;99455.25;10370613;28;97892;-79
2021/12/28 13:12:53;;;;;;;47.07;19.63;;;1.70;99.90;;;-0.38;96.51;99471.97;10372463;28;97191;-79
2021/12/28 13:18:00;;;;;;;47.80;19.10;;;1.70;99.90;;;-0.39;96.83;99462.47;10391644;28;96741;-79
2021/12/28 13:23:07;;;;;;;59.87;23.43;;;1.70;99.90;;;-0.36;96.86;99469.22;10374487;28;97027;-79
2021/12/28 13:28:14;;;;;;;53.03;19.43;;;1.70;99.90;;;-0.35;97.08;99474.34;10369483;28;97012;-78
2021/12/28 13:33:22;;;;;;;51.03;21.10;;;1.70;99.90;;;-0.34;97.18;99473.41;10375097;27;98230;-78
2021/12/28 13:38:27;;;;;;;54.13;20.93;;;1.70;99.90;;;-0.35;97.35;99460.47;10366346;28;96972;-78
2021/12/28 13:43:34;;;;;;;52.77;21.03;;;1.70;99.90;;;-0.35;97.56;99463.09;10389648;28;96627;-79
2021/12/28 13:48:42;;;;;;;52.47;19.63;;;1.70;99.90;;;-0.39;97.26;99464.25;10368666;28;96591;-78
2021/12/28 13:53:54;;;;;;;46.57;18.43;;;1.70;99.90;;;-0.42;97.23;99457.50;10374446;28;96733;-78
2021/12/28 13:58:57;;;;;;;43.90;16.57;;;1.70;99.90;;;-0.43;97.64;99460.19;10357963;28;97718;-78
2021/12/28 14:04:10;;;;;;;48.30;17.73;;;1.60;99.90;;;-0.46;97.60;99468.28;10368061;28;96779;-78
2021/12/28 14:09:22;;;;;;;49.80;18.57;;;1.60;99.90;;;-0.45;97.61;99465.53;10370208;27;96571;-78
2021/12/28 14:14:33;;;;;;;48.00;17.43;;;1.60;99.90;;;-0.47;98.26;99459.63;10355763;28;96817;-78
2021/12/28 14:19:39;;;;;;;36.95;14.70;;;1.60;99.90;;;-0.46;97.97;99469.09;10356367;28;96681;-78
2021/12/28 14:24:52;;;;;;;40.60;14.80;;;1.60;99.90;;;-0.49;97.83;99469.31;10392336;28;97045;-78
2021/12/28 14:30:16;;;;;;;36.53;12.73;;;1.60;99.90;;;-0.51;98.22;99465.19;10371773;28;96835;-78
2021/12/28 14:35:27;;;;;;;38.77;15.50;;;1.50;99.90;;;-0.53;98.53;99467.91;10364994;27;96660;-79
2021/12/28 14:40:33;;;;;;;46.30;17.30;;;1.50;99.90;;;-0.56;98.33;99462.91;10411042;28;96630;-78
2021/12/28 14:45:37;;;;;;;44.33;19.43;;;1.50;99.90;;;-0.57;98.32;99458.63;10388388;27;98291;-78
2021/12/28 14:50:40;;;;;;;40.43;17.60;;;1.50;99.90;;;-0.59;98.32;99455.31;10365824;28;98514;-78
2021/12/28 14:55:43;;;;;;;29.80;13.43;;;1.50;99.90;;;-0.59;98.67;99453.53;10373935;28;96608;-78
2021/12/28 15:00:51;;;;;;;32.17;12.63;;;1.50;99.90;;;-0.61;98.88;99458.03;10363407;28;96950;-77
2021/12/28 15:05:59;;;;;;;36.10;13.50;;;1.50;99.90;;;-0.63;99.14;99462.53;10368748;28;96616;-77
2021/12/28 15:11:04;;;;;;;47.50;16.50;;;1.40;99.90;;;-0.65;98.96;99447.94;10369704;28;98218;-78
2021/12/28 15:16:09;;;;;;;43.43;16.10;;;1.40;99.90;;;-0.64;99.34;99460.03;10385683;28;97033;-78
2021/12/28 15:21:12;;;;;;;36.60;14.60;;;1.40;99.90;;;-0.63;99.08;99461.72;10376259;28;97774;-81
2021/12/28 15:26:14;;;;;;;29.40;10.17;;;1.40;99.90;;;-0.63;99.08;99469.53;10354836;28;96937;-78
2021/12/28 15:31:17;;;;;;;28.20;10.50;;;1.50;99.90;;;-0.64;99.08;99471.31;10372096;28;97156;-78
2021/12/28 15:36:20;;;;;;;21.90;9.40;;;1.40;99.90;;;-0.64;99.46;99470.47;10392168;28;96602;-79
2021/12/28 15:41:23;;;;;;;28.57;11.90;;;1.40;99.90;;;-0.64;99.38;99473.09;10388888;27;97028;-77
2021/12/28 15:46:27;;;;;;;18.13;8.50;;;1.40;99.90;;;-0.66;99.47;99480.19;10376517;27;97977;-77
2021/12/28 15:51:31;;;;;;;17.47;7.77;;;1.40;99.90;;;-0.68;99.19;99462.03;10393577;28;96746;-78
2021/12/28 15:56:36;;;;;;;19.07;7.83;;;1.40;99.90;;;-0.69;99.51;99465.59;10391961;28;96783;-78
2021/12/28 16:01:40;;;;;;;18.67;7.70;;;1.40;99.90;;;-0.69;99.45;99454.34;10380328;28;97995;-78
2021/12/28 16:06:44;;;;;;;16.57;8.10;;;1.40;99.90;;;-0.71;99.83;99459.69;10382006;28;96710;-78
2021/12/28 16:11:47;;;;;;;17.63;8.13;;;1.40;99.90;;;-0.71;99.45;99464.06;10380922;28;96581;-77
2021/12/28 16:16:50;;;;;;;18.47;8.47;;;1.40;99.90;;;-0.73;99.80;99473.75;10365930;27;96757;-77
2021/12/28 16:21:54;;;;;;;16.40;7.80;;;1.30;99.90;;;-0.72;99.64;99459.78;10359182;28;97487;-77
2021/12/28 16:26:57;;;;;;;18.77;8.80;;;1.30;99.90;;;-0.72;99.82;99463.25;10365732;27;96949;-77
2021/12/28 16:31:59;;;;;;;20.37;9.53;;;1.30;99.90;;;-0.74;99.78;99466.88;10378666;28;98298;-77
2021/12/28 16:37:04;;;;;;;18.63;9.43;;;1.30;99.90;;;-0.73;99.84;99455.50;10388393;27;97637;-77
2021/12/28 16:42:08;;;;;;;27.47;12.07;;;1.30;99.90;;;-0.75;100.00;99457.41;10390160;28;97085;-77
2021/12/28 16:47:15;;;;;;;22.90;9.77;;;1.30;99.90;;;-0.76;99.79;99443.53;10379328;27;97214;-77
2021/12/28 16:52:18;;;;;;;20.70;9.60;;;1.30;99.90;;;-0.78;99.91;99448.03;10360579;28;96736;-78
2021/12/28 16:57:21;;;;;;;19.53;7.83;;;1.30;99.90;;;-0.79;99.78;99454.19;10380292;27;96895;-78
2021/12/28 17:02:24;;;;;;;29.03;11.47;;;1.30;99.90;;;-0.79;100.00;99453.34;10401056;28;96835;-78
2021/12/28 17:07:27;;;;;;;31.17;13.57;;;1.30;99.90;;;-0.78;100.00;99452.41;10358605;28;97353;-76
2021/12/28 17:12:30;;;;;;;25.13;12.20;;;1.30;99.90;;;-0.79;100.00;99446.34;10365234;28;96923;-78
2021/12/28 17:17:34;;;;;;;29.13;12.13;;;1.30;99.90;;;-0.79;100.00;99437.69;10366837;28;98387;-80
2021/12/28 17:22:38;;;;;;;16.83;8.63;;;1.30;99.90;;;-0.79;100.00;99442.91;10386279;27;97845;-77
2021/12/28 17:27:41;;;;;;;20.00;10.43;;;1.30;99.90;;;-0.79;100.00;99429.88;10362571;28;97541;-78
2021/12/28 17:32:44;;;;;;;21.17;9.97;;;1.20;99.90;;;-0.81;100.00;99420.38;10380213;27;97200;-78
2021/12/28 17:37:48;;;;;;;29.00;11.90;;;1.20;99.90;;;-0.82;100.00;99417.91;10356165;28;100491;-78
2021/12/28 17:42:50;;;;;;;20.60;10.00;;;1.20;99.90;;;-0.83;100.00;99427.50;10351147;28;96963;-78
2021/12/28 17:47:58;;;;;;;26.40;9.60;;;1.20;99.90;;;-0.82;100.00;99421.34;10341422;28;96859;-78
2021/12/28 17:53:02;;;;;;;23.63;9.90;;;1.20;99.90;;;-0.83;100.00;99414.47;10345285;28;96743;-77
2021/12/28 17:58:06;;;;;;;20.73;9.60;;;1.20;99.90;;;-0.81;100.00;99409.13;10321820;28;97625;-78
2021/12/28 18:03:11;;;;;;;23.83;9.80;;;1.20;99.90;;;-0.83;100.00;99393.59;10328176;28;97094;-77
2021/12/28 18:08:14;;;;;;;28.17;13.90;;;1.20;99.90;;;-0.83;100.00;99413.63;10356828;28;96787;-77
2021/12/28 18:13:17;;;;;;;27.37;12.47;;;1.20;99.90;;;-0.82;100.00;99410.91;10344613;28;98171;-78
2021/12/28 18:18:20;;;;;;;28.07;12.37;;;1.20;99.90;;;-0.78;100.00;99397.63;10356668;28;97004;-78
2021/12/28 18:23:23;;;;;;;21.50;9.20;;;1.30;99.90;;;-0.76;100.00;99388.75;10339329;28;96879;-77
2021/12/28 18:28:26;;;;;;;28.03;12.70;;;1.30;99.90;;;-0.76;100.00;99393.97;10336914;28;97819;-77
2021/12/28 18:33:30;;;;;;;14.70;8.03;;;1.30;99.90;;;-0.76;100.00;99393.97;10333448;28;98017;-77
2021/12/28 18:38:34;;;;;;;14.63;8.17;;;1.30;99.90;;;-0.76;100.00;99398.34;10366914;28;97759;-77
2021/12/28 18:43:37;;;;;;;16.70;8.13;;;1.30;99.90;;;-0.76;100.00;99380.91;10370340;28;97878;-77
2021/12/28 18:48:40;;;;;;;18.50;9.93;;;1.30;99.90;;;-0.77;100.00;99371.44;10355356;28;96880;-77
2021/12/28 18:53:44;;;;;;;25.37;10.37;;;1.30;99.90;;;-0.79;100.00;99382.91;10384143;28;98512;-76
2021/12/28 18:58:51;;;;;;;17.27;8.00;;;1.30;99.90;;;-0.75;100.00;99384.34;10388041;28;97415;-76
2021/12/28 19:03:53;;;;;;;19.03;9.63;;;1.30;99.90;;;-0.73;100.00;99382.44;10399107;28;97762;-76
2021/12/28 19:08:56;;;;;;;24.40;10.10;;;1.30;99.90;;;-0.74;100.00;99389.44;10375954;28;96626;-77
2021/12/28 19:13:59;;;;;;;26.80;11.43;;;1.30;99.90;;;-0.75;100.00;99377.34;10380856;28;96850;-77
2021/12/28 19:19:03;;;;;;;25.83;11.83;;;1.30;99.90;;;-0.71;100.00;99377.97;10373232;28;97705;-77
2021/12/28 19:24:06;;;;;;;23.33;10.63;;;1.40;99.90;;;-0.73;100.00;99375.44;10364239;28;98873;-77
2021/12/28 19:29:11;;;;;;;21.57;10.27;;;1.30;99.90;;;-0.74;100.00;99379.00;10379557;28;98241;-76
2021/12/28 19:34:14;;;;;;;16.77;8.63;;;1.40;99.90;;;-0.73;100.00;99380.66;10388959;27;97843;-77
2021/12/28 19:39:18;;;;;;;23.43;10.87;;;1.30;99.90;;;-0.72;100.00;99384.97;10364742;28;96652;-78
2021/12/28 19:44:21;;;;;;;23.43;11.13;;;1.40;99.90;;;-0.72;100.00;99382.34;10378857;28;98674;-77
2021/12/28 19:49:25;;;;;;;23.50;10.60;;;1.40;99.90;;;-0.70;100.00;99374.41;10385735;28;98129;-78
2021/12/28 19:54:29;;;;;;;21.73;12.13;;;1.40;99.90;;;-0.69;100.00;99373.44;10388541;28;97082;-78
2021/12/28 19:59:32;;;;;;;20.10;10.63;;;1.40;99.90;;;-0.69;100.00;99373.44;10367792;28;98351;-78
2021/12/28 20:04:35;;;;;;;14.90;8.23;;;1.40;99.90;;;-0.70;100.00;99366.59;10362917;28;98270;-78
2021/12/28 20:09:39;;;;;;;20.20;9.43;;;1.40;99.90;;;-0.68;100.00;99362.06;10376176;28;96548;-78
2021/12/28 20:14:43;;;;;;;19.57;8.87;;;1.40;99.90;;;-0.66;100.00;99363.63;10356906;28;97866;-77
2021/12/28 20:19:45;;;;;;;23.00;9.60;;;1.40;99.90;;;-0.65;100.00;99360.06;10388638;28;97426;-77
2021/12/28 20:24:48;;;;;;;20.90;9.33;;;1.40;99.90;;;-0.67;100.00;99355.91;10395472;28;97095;-78
2021/12/28 20:29:52;;;;;;;19.47;10.10;;;1.40;99.90;;;-0.65;100.00;99356.63;10400155;27;96826;-77
2021/12/28 20:34:56;;;;;;;22.57;10.70;;;1.40;99.90;;;-0.65;100.00;99344.41;10345026;28;97197;-77
2021/12/28 20:40:00;;;;;;;20.70;10.30;;;1.40;99.90;;;-0.62;100.00;99335.50;10328803;28;97272;-77
2021/12/28 20:45:06;;;;;;;19.57;8.77;;;1.40;99.90;;;-0.62;100.00;99330.28;10342603;28;96652;-78
2021/12/28 20:50:10;;;;;;;16.83;7.80;;;1.40;99.90;;;-0.63;100.00;99318.19;10355743;28;97457;-78
2021/12/28 20:55:18;;;;;;;19.57;7.77;;;1.50;99.90;;;-0.61;100.00;99311.06;10317751;28;96796;-78